Time;durP1;ratioP1;P1;durP2;ratioP2;P2;SDS_P1;SDS_P2;PMS_P1;PMS_P2;Temp;Humidity;BMP_temperature;BMP_pressure;BME280_temperature;BME280_humidity;BME280_pressure;Samples;Min_cycle;Max_cycle;Signal;HPM_P1;HPM_P2
2023/12/05 00:02:33;;;;;;;0.88;0.88;;;18.90;44.80;;;;;;8359782;28;20040;-52
2023/12/05 00:06:36;;;;;;;1.45;1.08;;;18.90;44.90;;;;;;8360024;28;20053;-51
2023/12/05 00:10:37;;;;;;;1.08;0.98;;;18.90;44.90;;;;;;8359515;28;20040;-54
2023/12/05 00:14:37;;;;;;;1.10;1.00;;;18.80;45.00;;;;;;8359759;28;20083;-53
2023/12/05 00:18:38;;;;;;;1.08;0.95;;;18.80;45.10;;;;;;8359613;28;20256;-54
2023/12/05 00:22:39;;;;;;;1.00;0.90;;;18.90;45.10;;;;;;8359378;28;20039;-54
2023/12/05 00:26:39;;;;;;;1.02;0.98;;;18.80;45.00;;;;;;8359450;28;20065;-53
2023/12/05 00:30:40;;;;;;;0.88;0.88;;;18.80;45.00;;;;;;8359336;28;20636;-53
2023/12/05 00:34:44;;;;;;;1.00;0.85;;;18.80;44.90;;;;;;8358162;28;20041;-53
2023/12/05 00:38:45;;;;;;;1.00;0.90;;;18.80;44.90;;;;;;8360611;28;20039;-52
2023/12/05 00:42:46;;;;;;;0.80;0.80;;;18.80;44.90;;;;;;8365725;28;20029;-54
2023/12/05 00:46:47;;;;;;;1.20;1.10;;;18.80;44.90;;;;;;8364596;28;20026;-54
2023/12/05 00:50:47;;;;;;;1.20;1.10;;;18.90;45.00;;;;;;8365180;28;20029;-54
2023/12/05 00:54:48;;;;;;;2.30;0.95;;;18.90;45.00;;;;;;8363800;28;20096;-54
2023/12/05 00:58:49;;;;;;;1.02;0.93;;;18.80;45.00;;;;;;8364764;28;20040;-55
2023/12/05 01:02:50;;;;;;;1.40;0.95;;;18.80;45.00;;;;;;8364785;28;20049;-52
2023/12/05 01:06:50;;;;;;;0.98;0.90;;;18.80;45.00;;;;;;8364365;28;20785;-54
2023/12/05 01:10:51;;;;;;;1.08;0.80;;;18.80;45.00;;;;;;8364693;28;20055;-53
2023/12/05 01:14:52;;;;;;;1.23;1.00;;;18.80;45.20;;;;;;8364926;28;20033;-54
2023/12/05 01:18:52;;;;;;;1.23;0.90;;;18.80;45.30;;;;;;8364416;28;20040;-53
2023/12/05 01:22:53;;;;;;;1.10;0.95;;;18.80;45.10;;;;;;8364109;28;20051;-54
2023/12/05 01:26:54;;;;;;;1.08;0.93;;;18.80;45.10;;;;;;8364102;28;20422;-53
2023/12/05 01:30:54;;;;;;;0.88;0.85;;;18.80;45.00;;;;;;8364136;28;20060;-54
2023/12/05 01:34:56;;;;;;;0.82;0.80;;;18.80;45.10;;;;;;8364160;28;20032;-54
2023/12/05 01:38:57;;;;;;;1.27;1.17;;;18.80;45.10;;;;;;8363569;28;20047;-54
2023/12/05 01:42:58;;;;;;;1.17;1.00;;;18.80;45.10;;;;;;8362568;28;20037;-54
2023/12/05 01:46:59;;;;;;;1.65;1.10;;;18.80;45.00;;;;;;8363987;28;20033;-55
2023/12/05 01:51:05;;;;;;;1.17;1.00;;;18.80;45.00;;;;;;8362147;28;20494;-55
2023/12/05 01:55:08;;;;;;;1.13;1.10;;;18.80;45.00;;;;;;8363398;28;20037;-55
2023/12/05 01:59:10;;;;;;;1.05;0.95;;;18.80;45.00;;;;;;8363264;28;20036;-55
2023/12/05 02:03:12;;;;;;;1.35;0.82;;;18.80;45.00;;;;;;8363665;28;20056;-55
2023/12/05 02:07:13;;;;;;;1.00;0.93;;;18.80;45.00;;;;;;8361471;28;20053;-54
2023/12/05 02:11:14;;;;;;;1.15;1.00;;;18.80;45.00;;;;;;8362705;28;20121;-54
2023/12/05 02:15:16;;;;;;;1.20;1.10;;;18.70;45.20;;;;;;8362595;28;20044;-54
2023/12/05 02:19:34;;;;;;;1.13;1.00;;;18.70;45.60;;;;;;8363089;28;20033;-52
2023/12/05 02:24:04;;;;;;;1.05;0.95;;;18.70;45.20;;;;;;8362410;28;20017;-55
2023/12/05 02:28:05;;;;;;;1.00;1.00;;;18.70;45.20;;;;;;8361967;28;20033;-53
2023/12/05 02:32:07;;;;;;;0.85;0.80;;;18.70;45.10;;;;;;8361337;28;20059;-54
2023/12/05 02:36:28;;;;;;;1.15;1.05;;;18.80;45.20;;;;;;8361929;28;20033;-55
2023/12/05 02:40:46;;;;;;;0.93;0.90;;;18.70;45.10;;;;;;8361704;28;20029;-54
2023/12/05 02:44:50;;;;;;;1.50;1.42;;;18.70;45.00;;;;;;8361682;28;20025;-54
2023/12/05 02:48:53;;;;;;;1.65;1.08;;;18.70;45.10;;;;;;8361356;28;20035;-54
2023/12/05 02:52:54;;;;;;;1.00;0.90;;;18.70;45.00;;;;;;8361503;28;20058;-49
2023/12/05 02:56:54;;;;;;;1.58;1.42;;;18.70;45.00;;;;;;8361585;28;20068;-49
2023/12/05 03:00:55;;;;;;;1.30;1.20;;;18.70;45.10;;;;;;8360799;28;20443;-48
2023/12/05 03:04:56;;;;;;;1.10;1.00;;;18.70;45.00;;;;;;8361122;28;20025;-50
2023/12/05 03:08:56;;;;;;;1.25;1.00;;;18.70;45.00;;;;;;8360897;28;20081;-51
2023/12/05 03:12:57;;;;;;;1.10;1.00;;;18.70;45.10;;;;;;8359697;28;20041;-49
2023/12/05 03:16:58;;;;;;;1.10;0.90;;;18.70;45.30;;;;;;8360862;28;20034;-52
2023/12/05 03:20:59;;;;;;;1.33;1.10;;;18.70;45.20;;;;;;8360415;28;20029;-49
2023/12/05 03:24:59;;;;;;;1.05;0.80;;;18.70;45.20;;;;;;8360587;28;20175;-50
2023/12/05 03:29:00;;;;;;;0.98;0.85;;;18.70;45.20;;;;;;8360563;28;20091;-50
2023/12/05 03:33:01;;;;;;;1.67;1.10;;;18.70;45.20;;;;;;8360285;28;20056;-48
2023/12/05 03:37:01;;;;;;;0.90;0.90;;;18.70;45.20;;;;;;8360177;28;20094;-48
2023/12/05 03:41:02;;;;;;;1.00;0.90;;;18.70;45.20;;;;;;8359865;28;20024;-48
2023/12/05 03:45:04;;;;;;;1.17;1.08;;;18.70;45.10;;;;;;8360272;28;20060;-49
2023/12/05 03:49:05;;;;;;;1.10;0.90;;;18.70;45.20;;;;;;8359942;28;20032;-48
2023/12/05 03:53:05;;;;;;;0.90;0.90;;;18.70;45.20;;;;;;8359851;28;20511;-47
2023/12/05 03:57:06;;;;;;;1.15;0.70;;;18.70;45.10;;;;;;8359867;28;20041;-49
2023/12/05 04:01:07;;;;;;;1.20;1.00;;;18.70;45.10;;;;;;8359770;28;20033;-50
2023/12/05 04:05:08;;;;;;;0.73;0.73;;;18.70;45.10;;;;;;8360016;28;20033;-48
2023/12/05 04:09:09;;;;;;;1.00;0.90;;;18.70;45.10;;;;;;8358350;28;20052;-51
2023/12/05 04:13:09;;;;;;;1.13;1.02;;;18.70;45.20;;;;;;8360212;28;20056;-50
2023/12/05 04:17:10;;;;;;;1.15;0.98;;;18.60;45.40;;;;;;8366208;28;20394;-48
2023/12/05 04:21:11;;;;;;;1.10;0.98;;;18.70;45.30;;;;;;8366000;28;20041;-48
2023/12/05 04:25:11;;;;;;;1.05;0.93;;;18.70;45.20;;;;;;8366104;28;20033;-49
2023/12/05 04:29:12;;;;;;;1.13;0.93;;;18.70;45.30;;;;;;8366104;28;20530;-49
2023/12/05 04:33:13;;;;;;;1.15;1.02;;;18.60;45.20;;;;;;8365668;28;20083;-49
2023/12/05 04:37:14;;;;;;;1.00;0.90;;;18.70;45.20;;;;;;8365662;28;20360;-49
2023/12/05 04:41:14;;;;;;;0.80;0.80;;;18.70;45.20;;;;;;8365337;28;20040;-49
2023/12/05 04:45:16;;;;;;;1.65;1.30;;;18.70;45.20;;;;;;8365431;28;20036;-50
2023/12/05 04:49:16;;;;;;;;;;;18.70;45.20;;;;;;8365485;28;20079;-49
2023/12/05 04:53:17;;;;;;;1.30;1.07;;;18.70;45.20;;;;;;8365110;28;19912;-50
2023/12/05 04:57:18;;;;;;;1.17;1.08;;;18.60;45.20;;;;;;8364766;28;20029;-49
2023/12/05 05:01:18;;;;;;;0.93;0.80;;;18.60;45.20;;;;;;8364767;28;20029;-48
2023/12/05 05:05:19;;;;;;;1.40;1.10;;;18.60;45.10;;;;;;8364570;28;20033;-49
2023/12/05 05:09:20;;;;;;;1.05;0.95;;;18.70;45.20;;;;;;8364856;28;20076;-50
2023/12/05 05:13:21;;;;;;;1.08;0.98;;;18.60;45.20;;;;;;8364683;28;20044;-53
2023/12/05 05:17:21;;;;;;;1.17;1.13;;;18.60;45.40;;;;;;8364458;28;20108;-53
2023/12/05 05:21:22;;;;;;;1.05;0.95;;;18.70;45.30;;;;;;8364279;28;20029;-53
2023/12/05 05:25:23;;;;;;;1.27;0.90;;;18.70;45.10;;;;;;8364030;28;20029;-53
2023/12/05 05:29:24;;;;;;;1.15;0.98;;;18.80;45.00;;;;;;8363831;28;20033;-53
2023/12/05 05:33:24;;;;;;;1.08;0.98;;;18.80;44.90;;;;;;8363993;28;20120;-53
2023/12/05 05:37:25;;;;;;;1.02;0.93;;;18.90;44.80;;;;;;8363670;28;20033;-52
2023/12/05 05:41:26;;;;;;;0.93;0.85;;;18.90;44.80;;;;;;8363503;28;20041;-54
2023/12/05 05:45:27;;;;;;;0.70;0.68;;;18.90;44.80;;;;;;8363614;28;20021;-54
2023/12/05 05:49:27;;;;;;;1.10;1.00;;;18.90;44.70;;;;;;8362297;28;20029;-52
2023/12/05 05:53:28;;;;;;;1.35;1.02;;;18.90;44.70;;;;;;8363300;28;20134;-53
2023/12/05 05:57:29;;;;;;;0.90;0.90;;;18.90;44.70;;;;;;8361700;28;20035;-53
2023/12/05 06:01:29;;;;;;;1.15;1.05;;;18.90;44.70;;;;;;8363268;28;20040;-54
2023/12/05 06:05:30;;;;;;;1.02;0.90;;;18.90;44.70;;;;;;8361544;28;20106;-53
2023/12/05 06:09:31;;;;;;;0.90;0.90;;;18.90;44.70;;;;;;8363278;28;20037;-54
2023/12/05 06:13:31;;;;;;;0.88;0.77;;;18.90;44.70;;;;;;8362678;28;20029;-54
2023/12/05 06:17:32;;;;;;;0.98;0.90;;;18.90;44.90;;;;;;8362639;28;20471;-52
2023/12/05 06:21:33;;;;;;;1.08;0.90;;;18.90;44.90;;;;;;8362416;28;20052;-53
2023/12/05 06:25:34;;;;;;;0.98;0.90;;;18.90;44.80;;;;;;8362363;28;20033;-55
2023/12/05 06:29:34;;;;;;;0.93;0.90;;;18.90;44.80;;;;;;8362282;28;20396;-54
2023/12/05 06:33:35;;;;;;;1.15;1.05;;;19.00;44.80;;;;;;8362155;28;20082;-54
2023/12/05 06:37:36;;;;;;;1.00;0.90;;;19.00;44.80;;;;;;8361465;28;20422;-54
2023/12/05 06:41:36;;;;;;;1.52;1.15;;;19.00;44.70;;;;;;8361763;28;20025;-53
2023/12/05 06:45:37;;;;;;;1.20;0.95;;;19.00;44.70;;;;;;8361599;28;20032;-54
2023/12/05 06:49:38;;;;;;;1.10;1.00;;;19.00;44.70;;;;;;8361649;28;20483;-54
2023/12/05 06:53:38;;;;;;;1.00;0.90;;;19.00;44.70;;;;;;8362182;28;20064;-55
2023/12/05 06:57:39;;;;;;;1.05;0.80;;;19.00;44.60;;;;;;8360292;28;20036;-53
2023/12/05 07:01:41;;;;;;;1.75;1.20;;;19.00;44.60;;;;;;8361034;28;20037;-53
2023/12/05 07:05:41;;;;;;;0.70;0.70;;;19.00;44.70;;;;;;8361070;28;20056;-54
2023/12/05 07:09:42;;;;;;;1.00;0.90;;;19.00;44.70;;;;;;8361193;28;20083;-55
2023/12/05 07:13:45;;;;;;;0.90;0.90;;;19.00;44.70;;;;;;8360881;28;20036;-53
2023/12/05 07:17:46;;;;;;;1.23;1.10;;;19.00;44.80;;;;;;8360750;28;20505;-53
2023/12/05 07:21:47;;;;;;;0.85;0.82;;;19.00;44.80;;;;;;8360882;28;20509;-55
2023/12/05 07:25:49;;;;;;;1.15;0.90;;;19.00;45.30;;;;;;8360571;28;20410;-54
2023/12/05 07:29:50;;;;;;;0.80;0.77;;;19.00;44.70;;;;;;8361081;28;20052;-55
2023/12/05 07:33:50;;;;;;;1.48;0.82;;;19.00;44.70;;;;;;8359189;28;20063;-51
2023/12/05 07:37:51;;;;;;;1.05;0.85;;;19.00;45.20;;;;;;8360136;28;20047;-50
2023/12/05 07:41:52;;;;;;;1.10;1.00;;;19.00;44.70;;;;;;8360349;28;20514;-51
2023/12/05 07:45:53;;;;;;;0.98;0.88;;;19.00;44.70;;;;;;8360117;28;20029;-51
2023/12/05 07:49:53;;;;;;;0.90;0.90;;;19.00;44.60;;;;;;8359158;28;20090;-51
2023/12/05 07:53:54;;;;;;;1.13;1.02;;;19.00;44.70;;;;;;8360253;28;20394;-49
2023/12/05 07:57:55;;;;;;;1.10;0.90;;;19.00;44.60;;;;;;8359835;28;20048;-51
2023/12/05 08:01:56;;;;;;;1.23;0.90;;;19.00;44.60;;;;;;8358561;28;20037;-52
2023/12/05 08:05:56;;;;;;;0.90;0.88;;;19.00;44.60;;;;;;8359734;28;20084;-50
2023/12/05 08:09:57;;;;;;;1.50;1.13;;;19.10;44.60;;;;;;8358783;28;20029;-50
2023/12/05 08:13:58;;;;;;;1.15;0.77;;;19.00;44.70;;;;;;8359717;28;20041;-51
2023/12/05 08:17:58;;;;;;;1.20;1.10;;;19.00;44.90;;;;;;8359529;28;20431;-51
2023/12/05 08:21:59;;;;;;;1.00;0.88;;;19.00;44.80;;;;;;8359680;28;20033;-51
2023/12/05 08:26:00;;;;;;;1.10;1.00;;;19.10;44.70;;;;;;8359778;28;20044;-50
2023/12/05 08:30:02;;;;;;;1.08;0.98;;;19.10;44.70;;;;;;8359425;28;20064;-49
2023/12/05 08:34:03;;;;;;;1.45;1.05;;;19.10;44.70;;;;;;8358266;28;20517;-50
2023/12/05 08:38:03;;;;;;;0.90;0.90;;;19.10;44.70;;;;;;8359198;28;20402;-50
2023/12/05 08:42:04;;;;;;;0.82;0.82;;;19.10;44.70;;;;;;8359102;28;20030;-52
2023/12/05 08:46:05;;;;;;;1.05;0.98;;;19.10;44.70;;;;;;8359369;28;20075;-50
2023/12/05 08:50:07;;;;;;;0.90;0.88;;;19.10;44.70;;;;;;8359164;28;20033;-51
2023/12/05 08:54:07;;;;;;;1.25;1.00;;;19.10;44.70;;;;;;8359119;28;20048;-50
2023/12/05 08:58:08;;;;;;;1.15;0.90;;;19.00;44.70;;;;;;8358734;28;20040;-49
2023/12/05 09:02:09;;;;;;;1.50;0.95;;;19.10;44.70;;;;;;8363677;28;20043;-51
2023/12/05 09:06:10;;;;;;;0.80;0.68;;;19.10;44.70;;;;;;8364753;28;20122;-51
2023/12/05 09:10:10;;;;;;;1.05;0.85;;;19.10;44.70;;;;;;8364929;28;20037;-50
2023/12/05 09:14:11;;;;;;;0.90;0.70;;;19.10;44.80;;;;;;8364338;28;20037;-51
2023/12/05 09:18:13;;;;;;;1.27;1.00;;;19.00;44.90;;;;;;8364442;28;20029;-51
2023/12/05 09:22:13;;;;;;;0.88;0.80;;;19.10;44.90;;;;;;8364290;28;20036;-50
2023/12/05 09:26:15;;;;;;;1.05;0.85;;;19.10;44.80;;;;;;8364011;28;20029;-50
2023/12/05 09:30:15;;;;;;;1.40;1.13;;;19.10;44.80;;;;;;8364018;28;20580;-52
2023/12/05 09:34:16;;;;;;;0.90;0.80;;;19.10;44.80;;;;;;8364180;28;20437;-51
2023/12/05 09:38:17;;;;;;;1.58;1.10;;;19.10;44.80;;;;;;8363677;28;20037;-51
2023/12/05 09:42:20;;;;;;;0.85;0.75;;;19.10;44.70;;;;;;8363575;28;20087;-51
2023/12/05 09:46:21;;;;;;;2.35;1.00;;;19.10;44.70;;;;;;8363679;28;20033;-52
2023/12/05 09:50:22;;;;;;;1.33;1.23;;;19.10;44.70;;;;;;8363496;28;20390;-50
2023/12/05 09:54:25;;;;;;;0.70;0.70;;;19.20;44.80;;;;;;8363318;28;20502;-49
2023/12/05 09:58:27;;;;;;;0.90;0.90;;;19.10;44.80;;;;;;8363016;28;20029;-50
2023/12/05 10:02:27;;;;;;;1.30;1.20;;;19.10;44.80;;;;;;8363202;28;20037;-49
2023/12/05 10:06:31;;;;;;;0.98;0.90;;;19.10;44.80;;;;;;8362646;28;20051;-51
2023/12/05 10:10:33;;;;;;;1.17;1.00;;;19.10;44.80;;;;;;8362423;28;20150;-48
2023/12/05 10:14:34;;;;;;;1.10;1.00;;;19.10;45.00;;;;;;8362245;28;20033;-49
2023/12/05 10:18:35;;;;;;;1.17;1.00;;;19.00;45.10;;;;;;8362640;28;20048;-50
2023/12/05 10:22:36;;;;;;;;;;;19.10;45.00;;;;;;8362846;28;20029;-48
2023/12/05 10:26:44;;;;;;;1.07;0.90;;;19.10;45.00;;;;;;8362695;28;19956;-49
2023/12/05 10:30:45;;;;;;;1.00;0.90;;;19.10;45.00;;;;;;8362285;28;20029;-49
2023/12/05 10:34:47;;;;;;;1.27;1.00;;;19.10;45.00;;;;;;8362635;28;20039;-50
2023/12/05 10:38:48;;;;;;;1.38;1.00;;;19.10;45.00;;;;;;8360509;28;20029;-50
2023/12/05 10:42:50;;;;;;;1.02;0.95;;;19.10;44.90;;;;;;8361581;28;20065;-49
2023/12/05 10:46:56;;;;;;;1.00;0.90;;;19.10;44.90;;;;;;8361769;28;20041;-50
2023/12/05 10:50:57;;;;;;;1.10;1.00;;;19.10;44.90;;;;;;8361550;28;20035;-51
2023/12/05 10:54:58;;;;;;;0.95;0.93;;;19.10;44.90;;;;;;8361601;28;20079;-49
2023/12/05 10:59:00;;;;;;;0.98;0.90;;;19.10;44.90;;;;;;8361344;28;20041;-49
2023/12/05 11:03:05;;;;;;;0.82;0.80;;;19.10;45.00;;;;;;8361174;28;20033;-52
2023/12/05 11:07:05;;;;;;;1.02;0.93;;;19.10;45.00;;;;;;8361003;28;20556;-50
2023/12/05 11:11:07;;;;;;;1.98;1.27;;;19.10;45.00;;;;;;8361007;28;20441;-49
2023/12/05 11:15:08;;;;;;;;;;;19.00;45.10;;;;;;8361824;28;20040;-50
2023/12/05 11:19:28;;;;;;;0.80;0.80;;;19.00;45.20;;;;;;8360843;28;20334;-49
2023/12/05 11:23:39;;;;;;;0.70;0.70;;;19.00;45.10;;;;;;8360364;28;20044;-51
2023/12/05 11:28:17;;;;;;;1.02;0.90;;;19.00;45.10;;;;;;8360574;28;20025;-50
2023/12/05 11:32:22;;;;;;;0.70;0.70;;;19.00;45.00;;;;;;8360645;28;20028;-50
2023/12/05 11:36:59;;;;;;;0.73;0.73;;;19.00;45.00;;;;;;8360399;28;20025;-48
2023/12/05 11:41:11;;;;;;;0.82;0.82;;;19.00;45.00;;;;;;8360081;28;20529;-48
2023/12/05 11:45:22;;;;;;;0.88;0.80;;;19.10;45.00;;;;;;8360439;28;20083;-49
2023/12/05 11:49:28;;;;;;;1.10;1.00;;;19.10;45.00;;;;;;8360202;28;20033;-50
2023/12/05 11:53:29;;;;;;;1.17;0.88;;;19.10;45.00;;;;;;8359880;28;20033;-50
2023/12/05 11:57:32;;;;;;;1.00;0.90;;;19.10;44.90;;;;;;8359909;28;20082;-48
2023/12/05 12:01:33;;;;;;;1.88;1.02;;;19.00;44.90;;;;;;8359783;28;20463;-51
2023/12/05 12:05:33;;;;;;;1.20;0.90;;;19.10;45.00;;;;;;8360079;28;20025;-49
2023/12/05 12:09:41;;;;;;;0.73;0.73;;;19.10;44.90;;;;;;8360367;28;20525;-49
2023/12/05 12:13:43;;;;;;;1.83;1.13;;;19.00;45.00;;;;;;8358473;28;20509;-47
2023/12/05 12:17:44;;;;;;;0.85;0.80;;;19.00;45.30;;;;;;8360157;28;20033;-50
2023/12/05 12:21:45;;;;;;;1.00;0.77;;;18.90;45.40;;;;;;8359525;28;20040;-48
2023/12/05 12:25:57;;;;;;;1.00;0.90;;;18.90;45.50;;;;;;8359423;28;20468;-48
2023/12/05 12:29:58;;;;;;;1.42;1.10;;;18.90;45.60;;;;;;8359601;28;20486;-51
2023/12/05 12:33:58;;;;;;;1.02;0.93;;;18.80;45.60;;;;;;8359606;28;20494;-50
2023/12/05 12:38:00;;;;;;;0.77;0.75;;;18.80;45.70;;;;;;8365956;28;20029;-50
2023/12/05 12:42:01;;;;;;;0.70;0.70;;;18.90;45.70;;;;;;8365609;28;20232;-49
2023/12/05 12:46:01;;;;;;;0.90;0.80;;;18.90;45.70;;;;;;8365722;28;20083;-50
2023/12/05 12:50:04;;;;;;;1.60;1.17;;;18.90;45.80;;;;;;8365919;28;20052;-48
2023/12/05 12:54:05;;;;;;;0.70;0.70;;;18.80;45.80;;;;;;8365400;28;20103;-51
2023/12/05 12:58:06;;;;;;;1.02;0.93;;;18.90;45.90;;;;;;8365082;28;20037;-49
2023/12/05 13:02:07;;;;;;;0.70;0.70;;;18.80;45.90;;;;;;8365075;28;20033;-49
2023/12/05 13:06:08;;;;;;;;;;;18.80;45.90;;;;;;8365298;28;20400;-49
2023/12/05 13:10:09;;;;;;;1.43;0.90;;;18.80;45.90;;;;;;8364908;28;19909;-49
2023/12/05 13:14:12;;;;;;;1.38;0.80;;;18.90;45.90;;;;;;8363438;28;20082;-50
2023/12/05 13:18:12;;;;;;;0.80;0.73;;;18.80;45.90;;;;;;8364826;28;20064;-49
2023/12/05 13:22:13;;;;;;;0.90;0.90;;;18.80;46.00;;;;;;8364214;28;20040;-49
2023/12/05 13:26:14;;;;;;;0.70;0.60;;;18.80;46.00;;;;;;8363111;28;20037;-51
2023/12/05 13:30:16;;;;;;;0.80;0.80;;;18.80;46.10;;;;;;8364330;28;20029;-49
2023/12/05 13:34:16;;;;;;;1.00;0.68;;;18.80;46.20;;;;;;8364036;28;20612;-50
2023/12/05 13:38:17;;;;;;;0.90;0.90;;;18.80;46.10;;;;;;8363877;28;20033;-50
2023/12/05 13:42:18;;;;;;;0.70;0.70;;;18.80;46.10;;;;;;8363706;28;20057;-50
2023/12/05 13:46:18;;;;;;;0.80;0.80;;;18.80;46.10;;;;;;8363648;28;20033;-52
2023/12/05 13:50:19;;;;;;;0.90;0.90;;;18.90;46.20;;;;;;8363537;28;20712;-51
2023/12/05 13:54:20;;;;;;;1.00;0.90;;;18.80;46.20;;;;;;8363553;28;20507;-50
2023/12/05 13:58:21;;;;;;;0.90;0.70;;;18.80;46.20;;;;;;8363261;28;20041;-50
2023/12/05 14:02:21;;;;;;;0.60;0.50;;;18.80;46.30;;;;;;8363165;28;20076;-51
2023/12/05 14:06:22;;;;;;;0.82;0.70;;;18.80;46.30;;;;;;8362936;28;20063;-49
2023/12/05 14:10:23;;;;;;;0.90;0.85;;;18.80;46.30;;;;;;8362953;28;20032;-49
2023/12/05 14:14:23;;;;;;;0.85;0.85;;;18.80;46.30;;;;;;8362798;28;20124;-49
2023/12/05 14:18:25;;;;;;;1.48;0.73;;;18.80;46.30;;;;;;8362739;28;20061;-48
2023/12/05 14:22:26;;;;;;;1.40;0.95;;;18.80;46.90;;;;;;8362453;28;20046;-50
2023/12/05 14:26:27;;;;;;;0.73;0.73;;;18.80;46.30;;;;;;8362294;28;20064;-51
2023/12/05 14:30:27;;;;;;;0.77;0.77;;;18.80;46.30;;;;;;8360964;28;20033;-49
2023/12/05 14:34:28;;;;;;;0.80;0.80;;;18.80;46.30;;;;;;8362397;28;20033;-49
2023/12/05 14:38:31;;;;;;;0.75;0.60;;;18.80;46.30;;;;;;8361816;28;20033;-48
2023/12/05 14:42:35;;;;;;;0.75;0.75;;;18.80;46.40;;;;;;8361918;28;20471;-51
2023/12/05 14:46:38;;;;;;;0.73;0.73;;;18.80;46.40;;;;;;8361764;28;20100;-48
2023/12/05 14:50:40;;;;;;;0.70;0.70;;;18.80;46.40;;;;;;8361482;28;20037;-49
2023/12/05 14:54:40;;;;;;;0.50;0.50;;;18.80;46.40;;;;;;8361380;28;20048;-50
2023/12/05 14:58:41;;;;;;;0.70;0.70;;;18.80;46.40;;;;;;8360802;28;20052;-49
2023/12/05 15:02:42;;;;;;;0.80;0.60;;;18.80;46.40;;;;;;8361024;28;20505;-49
2023/12/05 15:06:43;;;;;;;0.73;0.50;;;18.80;46.50;;;;;;8360849;28;20064;-49
2023/12/05 15:10:45;;;;;;;0.60;0.60;;;18.80;46.50;;;;;;8361722;28;20040;-49
2023/12/05 15:14:45;;;;;;;0.50;0.50;;;18.80;46.50;;;;;;8360784;28;20029;-51
2023/12/05 15:18:46;;;;;;;1.33;0.85;;;18.80;46.50;;;;;;8360737;28;20048;-49
2023/12/05 15:22:47;;;;;;;1.23;0.70;;;18.80;46.50;;;;;;8360451;28;20037;-50
2023/12/05 15:26:47;;;;;;;0.73;0.73;;;18.80;46.50;;;;;;8360507;28;20379;-50
2023/12/05 15:30:48;;;;;;;0.85;0.77;;;18.80;46.60;;;;;;8360401;28;20037;-49
2023/12/05 15:34:49;;;;;;;0.65;0.65;;;18.80;46.60;;;;;;8360215;28;20032;-50
2023/12/05 15:38:49;;;;;;;1.00;0.90;;;18.80;46.60;;;;;;8360136;28;20395;-49
2023/12/05 15:42:50;;;;;;;0.60;0.60;;;18.80;46.60;;;;;;8360005;28;20029;-51
2023/12/05 15:46:51;;;;;;;0.82;0.68;;;18.80;46.60;;;;;;8360185;28;20079;-55
2023/12/05 15:50:51;;;;;;;0.60;0.50;;;18.80;46.60;;;;;;8359731;28;20433;-54
2023/12/05 15:54:52;;;;;;;0.82;0.70;;;18.80;46.60;;;;;;8360041;28;20030;-55
2023/12/05 15:58:53;;;;;;;0.60;0.60;;;18.80;46.50;;;;;;8359738;28;20029;-55
2023/12/05 16:02:54;;;;;;;0.98;0.77;;;18.80;46.50;;;;;;8359791;28;20044;-53
2023/12/05 16:06:54;;;;;;;1.80;0.65;;;18.80;46.50;;;;;;8359688;28;20060;-55
2023/12/05 16:10:55;;;;;;;0.50;0.50;;;18.80;46.50;;;;;;8363134;28;20039;-54
2023/12/05 16:14:56;;;;;;;2.50;0.65;;;18.90;46.50;;;;;;8366594;28;20127;-53
2023/12/05 16:18:57;;;;;;;0.63;0.63;;;18.80;46.40;;;;;;8366403;28;20108;-55
2023/12/05 16:22:58;;;;;;;0.85;0.65;;;18.80;46.50;;;;;;8366773;28;20040;-53
2023/12/05 16:26:58;;;;;;;0.50;0.45;;;18.80;46.60;;;;;;8365906;28;20445;-54
2023/12/05 16:30:59;;;;;;;0.60;0.50;;;18.80;46.60;;;;;;8365974;28;20029;-55
2023/12/05 16:35:00;;;;;;;0.70;0.70;;;18.80;46.70;;;;;;8365998;28;20060;-54
2023/12/05 16:39:01;;;;;;;0.50;0.50;;;18.80;46.70;;;;;;8365723;28;20041;-55
2023/12/05 16:43:02;;;;;;;0.70;0.70;;;18.80;46.60;;;;;;8365581;28;20123;-54
2023/12/05 16:47:03;;;;;;;0.85;0.70;;;18.80;46.60;;;;;;8365463;28;20078;-54
2023/12/05 16:51:04;;;;;;;0.40;0.40;;;18.80;46.60;;;;;;8365393;28;20433;-54
2023/12/05 16:55:05;;;;;;;0.40;0.40;;;18.80;46.50;;;;;;8365555;28;20055;-55
2023/12/05 16:59:05;;;;;;;0.77;0.77;;;18.80;46.50;;;;;;8363882;28;20470;-53
2023/12/05 17:03:06;;;;;;;0.75;0.70;;;18.80;46.60;;;;;;8365066;28;20045;-53
2023/12/05 17:07:07;;;;;;;0.45;0.40;;;18.90;46.60;;;;;;8363834;28;20057;-54
2023/12/05 17:11:07;;;;;;;0.60;0.60;;;18.90;46.60;;;;;;8362619;28;20029;-53
2023/12/05 17:15:08;;;;;;;0.50;0.50;;;18.80;46.50;;;;;;8362862;28;20051;-52
2023/12/05 17:19:09;;;;;;;1.52;0.70;;;18.80;46.60;;;;;;8362789;28;20086;-54
2023/12/05 17:23:10;;;;;;;0.55;0.55;;;18.80;46.60;;;;;;8361965;28;20033;-53
2023/12/05 17:27:12;;;;;;;0.52;0.52;;;18.80;46.70;;;;;;8362188;28;20040;-54
2023/12/05 17:31:13;;;;;;;0.50;0.50;;;18.80;46.70;;;;;;8362368;28;20029;-55
2023/12/05 17:35:14;;;;;;;0.77;0.60;;;18.80;46.80;;;;;;8362242;28;20035;-55
2023/12/05 17:39:15;;;;;;;0.57;0.55;;;18.80;46.70;;;;;;8362049;28;20029;-55
2023/12/05 17:43:16;;;;;;;0.50;0.50;;;18.80;46.70;;;;;;8361871;28;20039;-54
2023/12/05 17:47:22;;;;;;;0.65;0.60;;;18.80;46.70;;;;;;8361763;28;20033;-51
2023/12/05 17:51:22;;;;;;;0.70;0.65;;;18.80;46.80;;;;;;8361837;28;20029;-55
2023/12/05 17:55:23;;;;;;;1.15;0.70;;;18.80;46.80;;;;;;8361789;28;20033;-55
2023/12/05 17:59:25;;;;;;;0.82;0.80;;;18.80;46.80;;;;;;8361882;28;20079;-55
2023/12/05 18:03:26;;;;;;;0.80;0.73;;;18.70;46.80;;;;;;8361413;28;20037;-54
2023/12/05 18:07:26;;;;;;;0.77;0.75;;;18.80;46.90;;;;;;8312211;28;1438287;-53
2023/12/05 18:11:28;;;;;;;0.45;0.45;;;18.70;46.80;;;;;;8353486;28;20037;-52
2023/12/05 18:15:29;;;;;;;0.73;0.68;;;18.80;46.90;;;;;;8329377;28;20029;-54
2023/12/05 18:19:30;;;;;;;0.50;0.50;;;18.70;46.80;;;;;;8329883;28;20483;-53
2023/12/05 18:23:31;;;;;;;0.95;0.63;;;18.80;46.90;;;;;;8329592;28;20037;-55
2023/12/05 18:27:33;;;;;;;0.70;0.50;;;18.80;46.80;;;;;;8344905;28;20040;-55
2023/12/05 18:31:33;;;;;;;0.50;0.50;;;18.80;46.80;;;;;;8362001;28;20041;-55
2023/12/05 18:35:34;;;;;;;0.60;0.60;;;18.80;46.70;;;;;;8362013;28;20044;-54
2023/12/05 18:39:35;;;;;;;0.60;0.60;;;18.80;46.80;;;;;;8362402;28;20029;-54
2023/12/05 18:43:36;;;;;;;0.80;0.70;;;18.80;46.70;;;;;;8361966;28;20051;-54
2023/12/05 18:47:37;;;;;;;;;;;18.90;46.60;;;;;;8362572;28;20040;-57
2023/12/05 18:51:38;;;;;;;0.40;0.40;;;18.90;46.70;;;;;;8346411;28;19913;-54
2023/12/05 18:55:38;;;;;;;5.15;1.05;;;18.90;46.60;;;;;;8338311;28;20041;-56
2023/12/05 18:59:39;;;;;;;1.45;0.80;;;19.10;47.30;;;;;;8349943;28;20037;-54
2023/12/05 19:03:39;;;;;;;1.25;0.70;;;19.10;46.90;;;;;;8353019;28;20504;-49
2023/12/05 19:07:40;;;;;;;2.78;0.90;;;19.10;47.20;;;;;;8354848;28;20151;-50
2023/12/05 19:11:41;;;;;;;2.75;0.90;;;19.10;47.50;;;;;;8352290;28;20168;-49
2023/12/05 19:15:42;;;;;;;7.20;1.15;;;19.10;47.60;;;;;;8353465;28;20040;-53
2023/12/05 19:19:46;;;;;;;2.63;0.70;;;19.20;47.70;;;;;;8353657;28;20199;-52
2023/12/05 19:23:46;;;;;;;3.03;0.80;;;19.20;47.50;;;;;;8355013;28;20037;-53
2023/12/05 19:27:49;;;;;;;8.27;0.90;;;19.30;47.40;;;;;;8354908;28;20115;-50
2023/12/05 19:31:50;;;;;;;10.73;0.80;;;19.30;47.60;;;;;;8352382;28;20422;-50
2023/12/05 19:35:51;;;;;;;;;;;19.40;47.60;;;;;;8352330;28;20039;-54
2023/12/05 19:39:52;;;;;;;6.00;0.90;;;19.40;47.50;;;;;;8354289;28;19925;-51
2023/12/05 19:43:53;;;;;;;7.85;0.80;;;19.40;47.50;;;;;;8352322;28;20321;-53
2023/12/05 19:47:54;;;;;;;1.30;0.60;;;19.40;47.60;;;;;;8351265;28;20044;-54
2023/12/05 19:51:54;;;;;;;4.63;1.10;;;19.40;47.60;;;;;;8351079;28;20032;-54
2023/12/05 19:55:56;;;;;;;1.35;0.70;;;19.30;47.80;;;;;;8350196;28;20571;-48
2023/12/05 19:59:57;;;;;;;3.25;1.05;;;19.40;47.90;;;;;;8352950;28;20044;-54
2023/12/05 20:03:58;;;;;;;6.60;1.27;;;19.30;47.80;;;;;;8354315;28;20051;-54
2023/12/05 20:07:58;;;;;;;2.20;1.05;;;19.30;47.70;;;;;;8353604;28;20033;-54
2023/12/05 20:11:59;;;;;;;1.25;0.60;;;19.30;47.60;;;;;;8352540;28;20385;-54
2023/12/05 20:16:00;;;;;;;2.75;0.80;;;19.40;47.60;;;;;;8353787;28;20123;-54
2023/12/05 20:20:01;;;;;;;5.10;1.77;;;19.40;47.60;;;;;;8353435;28;20471;-52
2023/12/05 20:24:02;;;;;;;2.00;0.73;;;19.40;47.60;;;;;;8353242;28;20037;-52
2023/12/05 20:28:03;;;;;;;5.45;0.90;;;19.40;47.80;;;;;;8353997;28;20094;-54
2023/12/05 20:32:04;;;;;;;3.92;0.60;;;19.40;47.70;;;;;;8353597;28;20045;-53
2023/12/05 20:36:05;;;;;;;3.95;0.73;;;19.40;47.70;;;;;;8353353;28;20626;-53
2023/12/05 20:40:06;;;;;;;3.38;0.77;;;19.40;48.00;;;;;;8353049;28;20037;-54
2023/12/05 20:44:07;;;;;;;;;;;19.40;47.90;;;;;;8353821;28;20029;-51
2023/12/05 20:48:10;;;;;;;6.80;0.80;;;19.40;47.80;;;;;;8353114;28;19917;-53
2023/12/05 20:52:10;;;;;;;2.55;1.17;;;19.40;47.80;;;;;;8352919;28;20056;-53
2023/12/05 20:56:11;;;;;;;0.95;0.88;;;19.50;47.90;;;;;;8355066;28;20091;-54
2023/12/05 21:00:12;;;;;;;0.98;0.60;;;19.50;48.00;;;;;;8358960;28;20040;-54